sensor_id;sensor_type;location;lat;lon;timestamp;temperature;humidity
65404;DHT22;52014;52.088;5.096;2023-04-23T00:00:57;10.50;99.90
65404;DHT22;52014;52.088;5.096;2023-04-23T00:03:26;10.60;99.90
65404;DHT22;52014;52.088;5.096;2023-04-23T00:05:53;10.60;99.90
65404;DHT22;52014;52.088;5.096;2023-04-23T00:08:22;10.60;99.90
65404;DHT22;52014;52.088;5.096;2023-04-23T00:10:48;10.60;99.90
65404;DHT22;52014;52.088;5.096;2023-04-23T00:13:14;10.60;99.90
65404;DHT22;52014;52.088;5.096;2023-04-23T00:15:39;10.60;99.90
65404;DHT22;52014;52.088;5.096;2023-04-23T00:18:05;10.60;99.90
65404;DHT22;52014;52.088;5.096;2023-04-23T00:20:30;10.50;99.90
65404;DHT22;52014;52.088;5.096;2023-04-23T00:22:56;10.50;99.90
65404;DHT22;52014;52.088;5.096;2023-04-23T00:25:22;10.50;99.90
65404;DHT22;52014;52.088;5.096;2023-04-23T00:27:47;10.40;99.90
65404;DHT22;52014;52.088;5.096;2023-04-23T00:30:12;10.40;99.90
65404;DHT22;52014;52.088;5.096;2023-04-23T00:32:38;10.40;99.90
65404;DHT22;52014;52.088;5.096;2023-04-23T00:35:03;10.50;99.90
65404;DHT22;52014;52.088;5.096;2023-04-23T00:37:30;10.50;99.90
65404;DHT22;52014;52.088;5.096;2023-04-23T00:39:55;10.50;99.90
65404;DHT22;52014;52.088;5.096;2023-04-23T00:42:20;10.50;99.90
65404;DHT22;52014;52.088;5.096;2023-04-23T00:44:46;10.50;99.90
65404;DHT22;52014;52.088;5.096;2023-04-23T00:47:11;10.40;99.90
65404;DHT22;52014;52.088;5.096;2023-04-23T00:49:38;10.40;99.90
65404;DHT22;52014;52.088;5.096;2023-04-23T00:52:03;10.40;99.90
65404;DHT22;52014;52.088;5.096;2023-04-23T00:54:29;10.40;99.90
65404;DHT22;52014;52.088;5.096;2023-04-23T00:56:54;10.40;99.90
65404;DHT22;52014;52.088;5.096;2023-04-23T00:59:22;10.40;99.90
65404;DHT22;52014;52.088;5.096;2023-04-23T01:01:48;10.40;99.90
65404;DHT22;52014;52.088;5.096;2023-04-23T01:04:15;10.40;99.90
65404;DHT22;52014;52.088;5.096;2023-04-23T01:06:40;10.40;99.90
65404;DHT22;52014;52.088;5.096;2023-04-23T01:09:07;10.40;99.90
65404;DHT22;52014;52.088;5.096;2023-04-23T01:11:35;10.40;99.90
65404;DHT22;52014;52.088;5.096;2023-04-23T01:14:03;10.40;99.90
65404;DHT22;52014;52.088;5.096;2023-04-23T01:16:28;10.40;99.90
65404;DHT22;52014;52.088;5.096;2023-04-23T01:18:54;10.40;99.90
65404;DHT22;52014;52.088;5.096;2023-04-23T01:21:21;10.30;99.90
65404;DHT22;52014;52.088;5.096;2023-04-23T01:23:46;10.40;99.90
65404;DHT22;52014;52.088;5.096;2023-04-23T01:26:12;10.40;99.90
65404;DHT22;52014;52.088;5.096;2023-04-23T01:28:39;10.40;99.90
65404;DHT22;52014;52.088;5.096;2023-04-23T01:31:05;10.30;99.90
65404;DHT22;52014;52.088;5.096;2023-04-23T01:33:31;10.40;99.90
65404;DHT22;52014;52.088;5.096;2023-04-23T01:35:56;10.40;99.90
65404;DHT22;52014;52.088;5.096;2023-04-23T01:38:22;10.40;99.90
65404;DHT22;52014;52.088;5.096;2023-04-23T01:40:48;10.40;99.90
65404;DHT22;52014;52.088;5.096;2023-04-23T01:43:13;10.40;99.90
65404;DHT22;52014;52.088;5.096;2023-04-23T01:45:39;10.40;99.90
65404;DHT22;52014;52.088;5.096;2023-04-23T01:48:05;10.40;99.90
65404;DHT22;52014;52.088;5.096;2023-04-23T01:50:30;10.40;99.90
65404;DHT22;52014;52.088;5.096;2023-04-23T01:52:56;10.40;99.90
65404;DHT22;52014;52.088;5.096;2023-04-23T01:55:21;10.40;99.90
65404;DHT22;52014;52.088;5.096;2023-04-23T01:57:47;10.40;99.90
65404;DHT22;52014;52.088;5.096;2023-04-23T02:00:13;10.40;99.90
65404;DHT22;52014;52.088;5.096;2023-04-23T02:02:39;10.40;99.90
65404;DHT22;52014;52.088;5.096;2023-04-23T02:05:09;10.40;99.90
65404;DHT22;52014;52.088;5.096;2023-04-23T02:07:35;10.40;99.90
65404;DHT22;52014;52.088;5.096;2023-04-23T02:10:01;10.30;99.90
65404;DHT22;52014;52.088;5.096;2023-04-23T02:12:27;10.40;99.90
65404;DHT22;52014;52.088;5.096;2023-04-23T02:14:52;10.40;99.90
65404;DHT22;52014;52.088;5.096;2023-04-23T02:17:19;10.30;99.90
65404;DHT22;52014;52.088;5.096;2023-04-23T02:19:44;10.30;99.90
65404;DHT22;52014;52.088;5.096;2023-04-23T02:22:10;10.20;99.90
65404;DHT22;52014;52.088;5.096;2023-04-23T02:24:35;10.20;99.90
65404;DHT22;52014;52.088;5.096;2023-04-23T02:27:03;10.30;99.90
65404;DHT22;52014;52.088;5.096;2023-04-23T02:29:28;10.30;99.90
65404;DHT22;52014;52.088;5.096;2023-04-23T02:31:54;10.30;99.90
65404;DHT22;52014;52.088;5.096;2023-04-23T02:34:19;10.30;99.90
65404;DHT22;52014;52.088;5.096;2023-04-23T02:36:45;10.30;99.90
65404;DHT22;52014;52.088;5.096;2023-04-23T02:39:10;10.40;99.90
65404;DHT22;52014;52.088;5.096;2023-04-23T02:41:36;10.30;99.90
65404;DHT22;52014;52.088;5.096;2023-04-23T02:44:01;10.30;99.90
65404;DHT22;52014;52.088;5.096;2023-04-23T02:46:27;10.40;99.90
65404;DHT22;52014;52.088;5.096;2023-04-23T02:48:52;10.40;99.90
65404;DHT22;52014;52.088;5.096;2023-04-23T02:51:18;10.40;99.90
65404;DHT22;52014;52.088;5.096;2023-04-23T02:53:43;10.40;99.90
65404;DHT22;52014;52.088;5.096;2023-04-23T02:56:09;10.40;99.90
65404;DHT22;52014;52.088;5.096;2023-04-23T02:58:34;10.50;99.90
65404;DHT22;52014;52.088;5.096;2023-04-23T03:01:00;10.40;99.90
65404;DHT22;52014;52.088;5.096;2023-04-23T03:03:26;10.40;99.90
65404;DHT22;52014;52.088;5.096;2023-04-23T03:05:55;10.40;99.90
65404;DHT22;52014;52.088;5.096;2023-04-23T03:08:21;10.40;99.90
65404;DHT22;52014;52.088;5.096;2023-04-23T03:10:46;10.40;99.90
65404;DHT22;52014;52.088;5.096;2023-04-23T03:13:12;10.40;99.90
65404;DHT22;52014;52.088;5.096;2023-04-23T03:15:37;10.40;99.90
65404;DHT22;52014;52.088;5.096;2023-04-23T03:18:03;10.30;99.90
65404;DHT22;52014;52.088;5.096;2023-04-23T03:20:30;10.40;99.90
65404;DHT22;52014;52.088;5.096;2023-04-23T03:22:56;10.40;99.90
65404;DHT22;52014;52.088;5.096;2023-04-23T03:25:21;10.30;99.90
65404;DHT22;52014;52.088;5.096;2023-04-23T03:27:48;10.40;99.90
65404;DHT22;52014;52.088;5.096;2023-04-23T03:30:14;10.30;99.90
65404;DHT22;52014;52.088;5.096;2023-04-23T03:32:39;10.30;99.90
65404;DHT22;52014;52.088;5.096;2023-04-23T03:35:05;10.30;99.90
65404;DHT22;52014;52.088;5.096;2023-04-23T03:37:30;10.30;99.90
65404;DHT22;52014;52.088;5.096;2023-04-23T03:39:56;10.30;99.90
65404;DHT22;52014;52.088;5.096;2023-04-23T03:42:21;10.30;99.90
65404;DHT22;52014;52.088;5.096;2023-04-23T03:44:47;10.30;99.90
65404;DHT22;52014;52.088;5.096;2023-04-23T03:47:12;10.30;99.90
65404;DHT22;52014;52.088;5.096;2023-04-23T03:49:37;10.30;99.90
65404;DHT22;52014;52.088;5.096;2023-04-23T03:52:04;10.30;99.90
65404;DHT22;52014;52.088;5.096;2023-04-23T03:54:29;10.30;99.90
65404;DHT22;52014;52.088;5.096;2023-04-23T03:56:55;10.30;99.90
65404;DHT22;52014;52.088;5.096;2023-04-23T03:59:21;10.30;99.90
65404;DHT22;52014;52.088;5.096;2023-04-23T04:01:47;10.20;99.90
65404;DHT22;52014;52.088;5.096;2023-04-23T04:04:13;10.20;99.90
65404;DHT22;52014;52.088;5.096;2023-04-23T04:06:38;10.30;99.90
65404;DHT22;52014;52.088;5.096;2023-04-23T04:09:04;10.30;99.90
65404;DHT22;52014;52.088;5.096;2023-04-23T04:11:32;10.30;99.90
65404;DHT22;52014;52.088;5.096;2023-04-23T04:13:57;10.30;99.90
65404;DHT22;52014;52.088;5.096;2023-04-23T04:16:23;10.30;99.90
65404;DHT22;52014;52.088;5.096;2023-04-23T04:18:48;10.30;99.90
65404;DHT22;52014;52.088;5.096;2023-04-23T04:21:14;10.30;99.90
65404;DHT22;52014;52.088;5.096;2023-04-23T04:23:42;10.30;99.90
65404;DHT22;52014;52.088;5.096;2023-04-23T04:26:07;10.40;99.90
65404;DHT22;52014;52.088;5.096;2023-04-23T04:28:33;10.30;99.90
65404;DHT22;52014;52.088;5.096;2023-04-23T04:31:00;10.30;99.90
65404;DHT22;52014;52.088;5.096;2023-04-23T04:33:26;10.40;99.90
65404;DHT22;52014;52.088;5.096;2023-04-23T04:35:53;10.40;99.90
65404;DHT22;52014;52.088;5.096;2023-04-23T04:38:19;10.40;99.90
65404;DHT22;52014;52.088;5.096;2023-04-23T04:40:46;10.40;99.90
65404;DHT22;52014;52.088;5.096;2023-04-23T04:43:13;10.40;99.90
65404;DHT22;52014;52.088;5.096;2023-04-23T04:45:38;10.40;99.90
65404;DHT22;52014;52.088;5.096;2023-04-23T04:48:04;10.40;99.90
65404;DHT22;52014;52.088;5.096;2023-04-23T04:50:29;10.30;99.90
65404;DHT22;52014;52.088;5.096;2023-04-23T04:52:54;10.30;99.90
65404;DHT22;52014;52.088;5.096;2023-04-23T04:55:20;10.40;99.90
65404;DHT22;52014;52.088;5.096;2023-04-23T04:57:45;10.30;99.90
65404;DHT22;52014;52.088;5.096;2023-04-23T05:00:21;10.30;99.90
65404;DHT22;52014;52.088;5.096;2023-04-23T05:02:48;10.40;99.90
65404;DHT22;52014;52.088;5.096;2023-04-23T05:05:13;10.40;99.90
65404;DHT22;52014;52.088;5.096;2023-04-23T05:07:39;10.50;99.90
65404;DHT22;52014;52.088;5.096;2023-04-23T05:10:04;10.40;99.90
65404;DHT22;52014;52.088;5.096;2023-04-23T05:12:30;10.40;99.90
65404;DHT22;52014;52.088;5.096;2023-04-23T05:14:55;10.50;99.90
65404;DHT22;52014;52.088;5.096;2023-04-23T05:17:21;10.50;99.90
65404;DHT22;52014;52.088;5.096;2023-04-23T05:19:46;10.60;99.90
65404;DHT22;52014;52.088;5.096;2023-04-23T05:22:12;10.70;99.90
65404;DHT22;52014;52.088;5.096;2023-04-23T05:24:37;10.80;99.90
65404;DHT22;52014;52.088;5.096;2023-04-23T05:27:02;11.00;99.90
65404;DHT22;52014;52.088;5.096;2023-04-23T05:29:28;11.00;99.90
65404;DHT22;52014;52.088;5.096;2023-04-23T05:31:53;11.00;99.90
65404;DHT22;52014;52.088;5.096;2023-04-23T05:34:19;11.00;99.90
65404;DHT22;52014;52.088;5.096;2023-04-23T05:36:44;11.10;99.90
65404;DHT22;52014;52.088;5.096;2023-04-23T05:39:10;11.30;99.90
65404;DHT22;52014;52.088;5.096;2023-04-23T05:41:35;11.40;99.90
65404;DHT22;52014;52.088;5.096;2023-04-23T05:44:01;11.50;99.90
65404;DHT22;52014;52.088;5.096;2023-04-23T05:46:26;11.60;99.90
65404;DHT22;52014;52.088;5.096;2023-04-23T05:48:52;11.70;99.90
65404;DHT22;52014;52.088;5.096;2023-04-23T05:51:17;11.70;99.90
65404;DHT22;52014;52.088;5.096;2023-04-23T05:53:43;11.70;99.90
65404;DHT22;52014;52.088;5.096;2023-04-23T05:56:08;11.90;99.90
65404;DHT22;52014;52.088;5.096;2023-04-23T05:58:34;12.30;99.90
65404;DHT22;52014;52.088;5.096;2023-04-23T06:00:59;12.70;99.90
65404;DHT22;52014;52.088;5.096;2023-04-23T06:03:25;13.00;99.90
65404;DHT22;52014;52.088;5.096;2023-04-23T06:05:51;13.40;99.90
65404;DHT22;52014;52.088;5.096;2023-04-23T06:08:16;13.50;99.90
65404;DHT22;52014;52.088;5.096;2023-04-23T06:10:41;13.50;99.90
65404;DHT22;52014;52.088;5.096;2023-04-23T06:13:07;13.30;99.90
65404;DHT22;52014;52.088;5.096;2023-04-23T06:15:33;13.90;99.90
65404;DHT22;52014;52.088;5.096;2023-04-23T06:17:58;15.40;99.90
65404;DHT22;52014;52.088;5.096;2023-04-23T06:20:24;15.70;99.90
65404;DHT22;52014;52.088;5.096;2023-04-23T06:22:49;15.40;99.90
65404;DHT22;52014;52.088;5.096;2023-04-23T06:25:15;14.40;99.90
65404;DHT22;52014;52.088;5.096;2023-04-23T06:27:40;14.20;99.90
65404;DHT22;52014;52.088;5.096;2023-04-23T06:30:06;13.70;99.90
65404;DHT22;52014;52.088;5.096;2023-04-23T06:32:32;13.50;99.90
65404;DHT22;52014;52.088;5.096;2023-04-23T06:34:57;13.40;99.90
65404;DHT22;52014;52.088;5.096;2023-04-23T06:37:23;13.60;99.90
65404;DHT22;52014;52.088;5.096;2023-04-23T06:39:50;13.70;99.90
65404;DHT22;52014;52.088;5.096;2023-04-23T06:42:15;13.70;99.90
65404;DHT22;52014;52.088;5.096;2023-04-23T06:44:42;13.80;99.90
65404;DHT22;52014;52.088;5.096;2023-04-23T06:47:08;13.90;99.90
65404;DHT22;52014;52.088;5.096;2023-04-23T06:49:33;13.80;99.90
65404;DHT22;52014;52.088;5.096;2023-04-23T06:51:58;14.00;99.90
65404;DHT22;52014;52.088;5.096;2023-04-23T06:54:24;14.20;99.90
65404;DHT22;52014;52.088;5.096;2023-04-23T06:56:50;14.30;99.90
65404;DHT22;52014;52.088;5.096;2023-04-23T06:59:15;14.40;99.90
65404;DHT22;52014;52.088;5.096;2023-04-23T07:01:41;14.50;99.90
65404;DHT22;52014;52.088;5.096;2023-04-23T07:04:06;14.50;99.90
65404;DHT22;52014;52.088;5.096;2023-04-23T07:06:32;14.60;99.90
65404;DHT22;52014;52.088;5.096;2023-04-23T07:08:59;14.70;99.90
65404;DHT22;52014;52.088;5.096;2023-04-23T07:11:24;14.80;99.90
65404;DHT22;52014;52.088;5.096;2023-04-23T07:13:50;14.90;99.90
65404;DHT22;52014;52.088;5.096;2023-04-23T07:16:15;15.00;99.90
65404;DHT22;52014;52.088;5.096;2023-04-23T07:18:41;15.10;99.90
65404;DHT22;52014;52.088;5.096;2023-04-23T07:21:06;15.20;99.90
65404;DHT22;52014;52.088;5.096;2023-04-23T07:23:32;15.20;99.90
65404;DHT22;52014;52.088;5.096;2023-04-23T07:25:57;15.30;99.90
65404;DHT22;52014;52.088;5.096;2023-04-23T07:28:23;15.40;99.90
65404;DHT22;52014;52.088;5.096;2023-04-23T07:30:48;15.50;99.90
65404;DHT22;52014;52.088;5.096;2023-04-23T07:33:14;15.50;99.90
65404;DHT22;52014;52.088;5.096;2023-04-23T07:35:40;15.50;99.90
65404;DHT22;52014;52.088;5.096;2023-04-23T07:38:05;15.60;99.90
65404;DHT22;52014;52.088;5.096;2023-04-23T07:40:31;15.80;99.90
65404;DHT22;52014;52.088;5.096;2023-04-23T07:42:56;15.80;99.90
65404;DHT22;52014;52.088;5.096;2023-04-23T07:45:23;15.90;99.90
65404;DHT22;52014;52.088;5.096;2023-04-23T07:47:48;16.00;99.90
65404;DHT22;52014;52.088;5.096;2023-04-23T07:50:14;16.10;99.90
65404;DHT22;52014;52.088;5.096;2023-04-23T07:52:40;16.20;99.90
65404;DHT22;52014;52.088;5.096;2023-04-23T07:55:06;16.30;99.90
65404;DHT22;52014;52.088;5.096;2023-04-23T07:57:31;16.40;99.90
65404;DHT22;52014;52.088;5.096;2023-04-23T07:59:57;16.40;99.90
65404;DHT22;52014;52.088;5.096;2023-04-23T08:02:22;16.60;99.90
65404;DHT22;52014;52.088;5.096;2023-04-23T08:04:50;16.70;99.90
65404;DHT22;52014;52.088;5.096;2023-04-23T08:07:15;16.70;99.90
65404;DHT22;52014;52.088;5.096;2023-04-23T08:09:41;16.80;99.90
65404;DHT22;52014;52.088;5.096;2023-04-23T08:12:06;16.90;99.90
65404;DHT22;52014;52.088;5.096;2023-04-23T08:14:32;17.00;99.90
65404;DHT22;52014;52.088;5.096;2023-04-23T08:16:57;17.00;99.90
65404;DHT22;52014;52.088;5.096;2023-04-23T08:19:23;17.10;99.90
65404;DHT22;52014;52.088;5.096;2023-04-23T08:21:48;17.20;99.90
65404;DHT22;52014;52.088;5.096;2023-04-23T08:24:14;17.10;99.90
65404;DHT22;52014;52.088;5.096;2023-04-23T08:26:39;17.30;99.90
65404;DHT22;52014;52.088;5.096;2023-04-23T08:29:05;17.40;99.90
65404;DHT22;52014;52.088;5.096;2023-04-23T08:31:30;17.50;99.90
65404;DHT22;52014;52.088;5.096;2023-04-23T08:33:56;17.60;99.90
65404;DHT22;52014;52.088;5.096;2023-04-23T08:36:21;17.70;99.90
65404;DHT22;52014;52.088;5.096;2023-04-23T08:38:46;17.70;99.90
65404;DHT22;52014;52.088;5.096;2023-04-23T08:41:13;17.70;99.90
65404;DHT22;52014;52.088;5.096;2023-04-23T08:46:07;17.80;99.90
65404;DHT22;52014;52.088;5.096;2023-04-23T08:48:35;17.90;99.90
65404;DHT22;52014;52.088;5.096;2023-04-23T08:51:01;17.90;99.90
65404;DHT22;52014;52.088;5.096;2023-04-23T08:53:26;17.90;99.90
65404;DHT22;52014;52.088;5.096;2023-04-23T08:55:53;18.00;99.90
65404;DHT22;52014;52.088;5.096;2023-04-23T08:58:19;18.10;99.90
65404;DHT22;52014;52.088;5.096;2023-04-23T09:00:45;18.10;99.90
65404;DHT22;52014;52.088;5.096;2023-04-23T09:03:11;18.20;99.90
65404;DHT22;52014;52.088;5.096;2023-04-23T09:05:36;18.20;99.90
65404;DHT22;52014;52.088;5.096;2023-04-23T09:08:02;18.20;99.90
65404;DHT22;52014;52.088;5.096;2023-04-23T09:10:27;18.40;99.90
65404;DHT22;52014;52.088;5.096;2023-04-23T09:12:53;18.50;99.90
65404;DHT22;52014;52.088;5.096;2023-04-23T09:15:18;18.50;99.90
65404;DHT22;52014;52.088;5.096;2023-04-23T09:17:44;18.10;99.90
65404;DHT22;52014;52.088;5.096;2023-04-23T09:20:11;17.90;99.90
65404;DHT22;52014;52.088;5.096;2023-04-23T09:22:40;18.00;99.90
65404;DHT22;52014;52.088;5.096;2023-04-23T09:25:06;18.20;99.90
65404;DHT22;52014;52.088;5.096;2023-04-23T09:27:32;18.10;99.90
65404;DHT22;52014;52.088;5.096;2023-04-23T09:29:58;18.10;99.90
65404;DHT22;52014;52.088;5.096;2023-04-23T09:32:33;17.80;99.90
65404;DHT22;52014;52.088;5.096;2023-04-23T09:34:58;17.80;99.90
65404;DHT22;52014;52.088;5.096;2023-04-23T09:37:26;17.70;99.90
65404;DHT22;52014;52.088;5.096;2023-04-23T09:39:51;18.00;99.90
65404;DHT22;52014;52.088;5.096;2023-04-23T09:42:25;18.00;99.90
65404;DHT22;52014;52.088;5.096;2023-04-23T09:44:59;17.80;99.90
65404;DHT22;52014;52.088;5.096;2023-04-23T09:47:24;17.80;99.90
65404;DHT22;52014;52.088;5.096;2023-04-23T09:49:50;17.70;99.90
65404;DHT22;52014;52.088;5.096;2023-04-23T09:52:16;17.60;99.90
65404;DHT22;52014;52.088;5.096;2023-04-23T09:54:42;17.70;99.90
65404;DHT22;52014;52.088;5.096;2023-04-23T09:57:08;18.00;99.90
65404;DHT22;52014;52.088;5.096;2023-04-23T09:59:36;18.10;99.90
65404;DHT22;52014;52.088;5.096;2023-04-23T10:02:02;18.20;99.90
65404;DHT22;52014;52.088;5.096;2023-04-23T10:04:28;18.30;99.90
65404;DHT22;52014;52.088;5.096;2023-04-23T10:06:54;18.40;99.90
65404;DHT22;52014;52.088;5.096;2023-04-23T10:09:23;18.70;99.90
65404;DHT22;52014;52.088;5.096;2023-04-23T10:11:58;18.50;99.90
65404;DHT22;52014;52.088;5.096;2023-04-23T10:14:26;18.60;99.90
65404;DHT22;52014;52.088;5.096;2023-04-23T10:16:56;18.40;99.90
65404;DHT22;52014;52.088;5.096;2023-04-23T10:19:22;18.40;99.90
65404;DHT22;52014;52.088;5.096;2023-04-23T10:21:48;18.40;99.90
65404;DHT22;52014;52.088;5.096;2023-04-23T10:24:14;18.20;99.90
65404;DHT22;52014;52.088;5.096;2023-04-23T10:26:41;18.20;99.90
65404;DHT22;52014;52.088;5.096;2023-04-23T10:29:12;18.30;99.90
65404;DHT22;52014;52.088;5.096;2023-04-23T10:31:39;18.30;99.90
65404;DHT22;52014;52.088;5.096;2023-04-23T10:34:05;18.10;99.90
65404;DHT22;52014;52.088;5.096;2023-04-23T10:36:32;18.10;99.90
65404;DHT22;52014;52.088;5.096;2023-04-23T10:38:57;18.10;99.90
65404;DHT22;52014;52.088;5.096;2023-04-23T10:41:28;18.00;99.90
65404;DHT22;52014;52.088;5.096;2023-04-23T10:43:58;17.90;99.90
65404;DHT22;52014;52.088;5.096;2023-04-23T10:46:26;18.00;99.90
65404;DHT22;52014;52.088;5.096;2023-04-23T10:49:04;17.80;99.90
65404;DHT22;52014;52.088;5.096;2023-04-23T10:51:34;17.80;99.90
65404;DHT22;52014;52.088;5.096;2023-04-23T10:54:01;17.90;99.90
65404;DHT22;52014;52.088;5.096;2023-04-23T10:56:27;17.90;99.90
65404;DHT22;52014;52.088;5.096;2023-04-23T10:58:52;18.00;99.90
65404;DHT22;52014;52.088;5.096;2023-04-23T11:01:18;17.90;99.90
65404;DHT22;52014;52.088;5.096;2023-04-23T11:03:44;17.60;99.90
65404;DHT22;52014;52.088;5.096;2023-04-23T11:06:18;17.50;99.90
65404;DHT22;52014;52.088;5.096;2023-04-23T11:08:53;17.60;99.90
65404;DHT22;52014;52.088;5.096;2023-04-23T11:11:20;17.80;99.90
65404;DHT22;52014;52.088;5.096;2023-04-23T11:13:51;17.80;99.90
65404;DHT22;52014;52.088;5.096;2023-04-23T11:16:20;17.70;99.90
65404;DHT22;52014;52.088;5.096;2023-04-23T11:21:21;17.70;99.90
65404;DHT22;52014;52.088;5.096;2023-04-23T11:23:46;17.80;99.90
65404;DHT22;52014;52.088;5.096;2023-04-23T11:26:14;17.70;99.90
65404;DHT22;52014;52.088;5.096;2023-04-23T11:28:41;17.70;99.90
65404;DHT22;52014;52.088;5.096;2023-04-23T11:31:08;17.80;99.90
65404;DHT22;52014;52.088;5.096;2023-04-23T11:33:33;17.90;99.90
65404;DHT22;52014;52.088;5.096;2023-04-23T11:36:01;18.00;99.90
65404;DHT22;52014;52.088;5.096;2023-04-23T11:38:30;18.00;99.90
65404;DHT22;52014;52.088;5.096;2023-04-23T11:41:00;18.00;99.90
65404;DHT22;52014;52.088;5.096;2023-04-23T11:43:26;17.90;99.90
65404;DHT22;52014;52.088;5.096;2023-04-23T11:45:53;18.00;99.90
65404;DHT22;52014;52.088;5.096;2023-04-23T11:48:19;18.00;99.90
65404;DHT22;52014;52.088;5.096;2023-04-23T11:50:45;17.90;99.90
65404;DHT22;52014;52.088;5.096;2023-04-23T11:53:10;17.90;99.90
65404;DHT22;52014;52.088;5.096;2023-04-23T11:55:36;17.80;99.90
65404;DHT22;52014;52.088;5.096;2023-04-23T11:58:02;17.80;99.90
65404;DHT22;52014;52.088;5.096;2023-04-23T12:00:28;17.90;99.90
65404;DHT22;52014;52.088;5.096;2023-04-23T12:05:26;17.90;99.90
65404;DHT22;52014;52.088;5.096;2023-04-23T12:07:52;17.90;99.90
65404;DHT22;52014;52.088;5.096;2023-04-23T12:10:18;18.00;99.90
65404;DHT22;52014;52.088;5.096;2023-04-23T12:12:47;18.00;99.90
65404;DHT22;52014;52.088;5.096;2023-04-23T12:15:13;18.10;99.90
65404;DHT22;52014;52.088;5.096;2023-04-23T12:17:38;18.10;99.90
65404;DHT22;52014;52.088;5.096;2023-04-23T12:20:04;18.00;99.90
65404;DHT22;52014;52.088;5.096;2023-04-23T12:22:31;17.80;99.90
65404;DHT22;52014;52.088;5.096;2023-04-23T12:24:56;17.80;99.90
65404;DHT22;52014;52.088;5.096;2023-04-23T12:27:24;17.90;99.90
65404;DHT22;52014;52.088;5.096;2023-04-23T12:29:59;18.00;99.90
65404;DHT22;52014;52.088;5.096;2023-04-23T12:32:25;18.00;99.90
65404;DHT22;52014;52.088;5.096;2023-04-23T12:34:51;18.10;99.90
65404;DHT22;52014;52.088;5.096;2023-04-23T12:37:23;18.20;99.90
65404;DHT22;52014;52.088;5.096;2023-04-23T12:39:49;17.90;99.90
65404;DHT22;52014;52.088;5.096;2023-04-23T12:42:17;18.00;99.90
65404;DHT22;52014;52.088;5.096;2023-04-23T12:44:42;18.10;99.90
65404;DHT22;52014;52.088;5.096;2023-04-23T12:47:08;18.10;99.90
65404;DHT22;52014;52.088;5.096;2023-04-23T12:49:37;18.20;99.90
65404;DHT22;52014;52.088;5.096;2023-04-23T12:52:03;18.20;99.90
65404;DHT22;52014;52.088;5.096;2023-04-23T12:54:31;18.20;99.90
65404;DHT22;52014;52.088;5.096;2023-04-23T12:56:57;18.10;99.90
65404;DHT22;52014;52.088;5.096;2023-04-23T12:59:22;18.10;99.90
65404;DHT22;52014;52.088;5.096;2023-04-23T13:01:48;18.00;99.90
65404;DHT22;52014;52.088;5.096;2023-04-23T13:04:15;18.00;99.90
65404;DHT22;52014;52.088;5.096;2023-04-23T13:06:40;17.80;99.90
65404;DHT22;52014;52.088;5.096;2023-04-23T13:09:06;17.80;99.90
65404;DHT22;52014;52.088;5.096;2023-04-23T13:11:40;17.60;99.90
65404;DHT22;52014;52.088;5.096;2023-04-23T13:14:06;17.50;99.90
65404;DHT22;52014;52.088;5.096;2023-04-23T13:16:32;17.60;99.90
65404;DHT22;52014;52.088;5.096;2023-04-23T13:18:58;17.60;99.90
65404;DHT22;52014;52.088;5.096;2023-04-23T13:21:24;17.50;99.90
65404;DHT22;52014;52.088;5.096;2023-04-23T13:23:49;17.40;99.90
65404;DHT22;52014;52.088;5.096;2023-04-23T13:26:14;17.40;99.90
65404;DHT22;52014;52.088;5.096;2023-04-23T13:28:40;17.30;99.90
65404;DHT22;52014;52.088;5.096;2023-04-23T13:31:05;17.20;99.90
65404;DHT22;52014;52.088;5.096;2023-04-23T13:33:31;17.10;99.90
65404;DHT22;52014;52.088;5.096;2023-04-23T13:35:57;17.00;99.90
65404;DHT22;52014;52.088;5.096;2023-04-23T13:38:24;17.00;99.90
65404;DHT22;52014;52.088;5.096;2023-04-23T13:40:50;16.90;99.90
65404;DHT22;52014;52.088;5.096;2023-04-23T13:43:15;16.80;99.90
65404;DHT22;52014;52.088;5.096;2023-04-23T13:45:40;16.80;99.90
65404;DHT22;52014;52.088;5.096;2023-04-23T13:48:06;16.60;99.90
65404;DHT22;52014;52.088;5.096;2023-04-23T13:50:32;16.50;99.90
65404;DHT22;52014;52.088;5.096;2023-04-23T13:52:58;16.50;99.90
65404;DHT22;52014;52.088;5.096;2023-04-23T13:55:23;16.50;99.90
65404;DHT22;52014;52.088;5.096;2023-04-23T13:57:49;16.60;99.90
65404;DHT22;52014;52.088;5.096;2023-04-23T14:00:14;16.60;99.90
65404;DHT22;52014;52.088;5.096;2023-04-23T14:02:40;16.60;99.90
65404;DHT22;52014;52.088;5.096;2023-04-23T14:05:06;16.60;99.90
65404;DHT22;52014;52.088;5.096;2023-04-23T14:07:33;16.60;99.90
65404;DHT22;52014;52.088;5.096;2023-04-23T14:09:58;16.50;99.90
65404;DHT22;52014;52.088;5.096;2023-04-23T14:12:25;16.40;99.90
65404;DHT22;52014;52.088;5.096;2023-04-23T14:14:51;16.40;99.90
65404;DHT22;52014;52.088;5.096;2023-04-23T14:17:16;16.30;99.90
65404;DHT22;52014;52.088;5.096;2023-04-23T14:19:42;16.30;99.90
65404;DHT22;52014;52.088;5.096;2023-04-23T14:22:07;16.30;99.90
65404;DHT22;52014;52.088;5.096;2023-04-23T14:24:33;16.30;99.90
65404;DHT22;52014;52.088;5.096;2023-04-23T14:27:02;16.30;99.90
65404;DHT22;52014;52.088;5.096;2023-04-23T14:29:29;16.30;99.90
65404;DHT22;52014;52.088;5.096;2023-04-23T14:31:55;16.20;99.90
65404;DHT22;52014;52.088;5.096;2023-04-23T14:34:20;16.20;99.90
65404;DHT22;52014;52.088;5.096;2023-04-23T14:36:46;16.20;99.90
65404;DHT22;52014;52.088;5.096;2023-04-23T14:39:13;16.10;99.90
65404;DHT22;52014;52.088;5.096;2023-04-23T14:41:39;16.00;99.90
65404;DHT22;52014;52.088;5.096;2023-04-23T14:44:05;15.80;99.90
65404;DHT22;52014;52.088;5.096;2023-04-23T14:46:30;15.80;99.90
65404;DHT22;52014;52.088;5.096;2023-04-23T14:48:56;15.70;99.90
65404;DHT22;52014;52.088;5.096;2023-04-23T14:51:21;15.70;99.90
65404;DHT22;52014;52.088;5.096;2023-04-23T14:53:47;15.60;99.90
65404;DHT22;52014;52.088;5.096;2023-04-23T14:56:12;15.60;99.90
65404;DHT22;52014;52.088;5.096;2023-04-23T14:58:38;15.40;99.90
65404;DHT22;52014;52.088;5.096;2023-04-23T15:01:03;15.30;99.90
65404;DHT22;52014;52.088;5.096;2023-04-23T15:03:29;15.20;99.90
65404;DHT22;52014;52.088;5.096;2023-04-23T15:05:54;15.10;99.90
65404;DHT22;52014;52.088;5.096;2023-04-23T15:08:20;15.00;99.90
65404;DHT22;52014;52.088;5.096;2023-04-23T15:10:45;15.00;99.90
65404;DHT22;52014;52.088;5.096;2023-04-23T15:18:09;14.90;99.90
65404;DHT22;52014;52.088;5.096;2023-04-23T15:20:35;14.90;99.90
65404;DHT22;52014;52.088;5.096;2023-04-23T15:23:01;14.90;99.90
65404;DHT22;52014;52.088;5.096;2023-04-23T15:25:26;15.00;99.90
65404;DHT22;52014;52.088;5.096;2023-04-23T15:27:52;14.90;99.90
65404;DHT22;52014;52.088;5.096;2023-04-23T15:30:24;14.90;99.90
65404;DHT22;52014;52.088;5.096;2023-04-23T15:32:50;14.80;99.90
65404;DHT22;52014;52.088;5.096;2023-04-23T15:35:16;14.90;99.90